createdAt,value
2022-09-07T00:01:00.571Z,2.60
2022-09-07T00:03:27.433Z,2.80
2022-09-07T00:05:54.176Z,2.35
2022-09-07T00:08:23.260Z,2.17
2022-09-07T00:10:58.272Z,2.85
2022-09-07T00:13:26.782Z,2.50
2022-09-07T00:15:53.369Z,2.40
2022-09-07T00:18:20.013Z,2.65
2022-09-07T00:20:46.563Z,2.67
2022-09-07T00:23:13.276Z,2.78
2022-09-07T00:25:40.288Z,3.20
2022-09-07T00:28:08.585Z,2.58
2022-09-07T00:30:41.928Z,2.63
2022-09-07T00:33:09.126Z,2.50
2022-09-07T00:35:42.034Z,3.10
2022-09-07T00:38:09.300Z,2.60
2022-09-07T00:40:35.906Z,2.95
2022-09-07T00:43:02.483Z,2.47
2022-09-07T00:45:29.429Z,2.70
2022-09-07T00:48:07.482Z,2.38
2022-09-07T00:50:42.975Z,2.47
2022-09-07T00:53:15.835Z,2.65
2022-09-07T00:55:45.569Z,2.55
2022-09-07T00:58:13.419Z,2.10
2022-09-07T01:00:41.830Z,2.70
2022-09-07T01:03:10.900Z,2.50
2022-09-07T01:05:51.736Z,2.15
2022-09-07T01:08:18.505Z,2.42
2022-09-07T01:10:46.733Z,2.47
2022-09-07T01:13:15.049Z,2.50
2022-09-07T01:16:05.550Z,2.72
2022-09-07T01:18:53.342Z,2.45
2022-09-07T01:21:27.068Z,2.95
2022-09-07T01:24:11.520Z,3.22
2022-09-07T01:27:18.482Z,2.78
2022-09-07T01:30:03.480Z,2.85
2022-09-07T01:32:36.142Z,2.70
2022-09-07T01:35:12.016Z,2.47
2022-09-07T01:37:49.140Z,2.40
2022-09-07T01:40:22.535Z,2.35
2022-09-07T01:43:02.340Z,2.70
2022-09-07T01:45:34.807Z,2.85
2022-09-07T01:48:05.904Z,2.92
2022-09-07T01:50:45.680Z,2.83
2022-09-07T01:53:23.355Z,2.53
2022-09-07T01:56:01.799Z,2.90
2022-09-07T01:58:46.020Z,2.70
2022-09-07T02:01:18.861Z,2.70
2022-09-07T02:03:55.151Z,2.70
2022-09-07T02:06:36.460Z,2.60
2022-09-07T02:09:09.837Z,2.78
2022-09-07T02:11:40.640Z,2.42
2022-09-07T02:14:14.324Z,2.78
2022-09-07T02:16:49.651Z,2.50
2022-09-07T02:19:19.150Z,2.47
2022-09-07T02:21:53.271Z,2.88
2022-09-07T02:24:26.145Z,2.17
2022-09-07T02:26:54.400Z,2.70
2022-09-07T02:29:21.159Z,1.98
2022-09-07T02:31:48.124Z,2.53
2022-09-07T02:34:14.668Z,2.20
2022-09-07T02:36:45.780Z,2.70
2022-09-07T02:39:12.796Z,2.78
2022-09-07T02:41:41.969Z,2.63
2022-09-07T02:44:21.308Z,3.08
2022-09-07T02:47:06.081Z,3.10
2022-09-07T02:49:46.211Z,3.35
2022-09-07T02:52:24.668Z,3.00
2022-09-07T02:55:09.177Z,2.97
2022-09-07T02:57:53.344Z,3.17
2022-09-07T03:00:26.007Z,2.60
2022-09-07T03:03:12.605Z,2.80
2022-09-07T03:05:39.003Z,3.35
2022-09-07T03:10:45.390Z,3.33
2022-09-07T03:13:27.010Z,3.75
2022-09-07T03:15:56.243Z,2.90
2022-09-07T03:18:24.643Z,3.30
2022-09-07T03:20:51.412Z,2.97
2022-09-07T03:23:18.062Z,2.92
2022-09-07T03:25:44.635Z,2.90
2022-09-07T03:28:11.479Z,2.70
2022-09-07T03:30:41.946Z,3.03
2022-09-07T03:33:08.452Z,3.40
2022-09-07T03:38:02.077Z,3.10
2022-09-07T03:40:28.832Z,3.30
2022-09-07T03:42:55.319Z,3.20
2022-09-07T03:47:49.123Z,3.33
2022-09-07T03:50:15.651Z,3.50
2022-09-07T03:52:42.229Z,3.88
2022-09-07T03:55:09.023Z,3.63
2022-09-07T03:57:36.084Z,3.25
2022-09-07T04:00:04.855Z,3.63
2022-09-07T04:02:39.076Z,3.80
2022-09-07T04:05:05.834Z,3.30
2022-09-07T04:07:32.309Z,3.65
2022-09-07T04:09:58.791Z,3.47
2022-09-07T04:14:52.530Z,3.53
2022-09-07T04:19:45.395Z,3.30
2022-09-07T04:24:38.219Z,3.30
2022-09-07T04:29:31.130Z,3.97
2022-09-07T04:34:24.084Z,3.70
2022-09-07T04:36:50.547Z,3.70
2022-09-07T04:41:43.736Z,3.95
2022-09-07T04:44:14.806Z,3.78
2022-09-07T04:46:43.181Z,4.03
2022-09-07T04:51:38.583Z,3.92
2022-09-07T04:54:05.427Z,3.92
2022-09-07T04:56:32.708Z,3.60
2022-09-07T04:59:01.262Z,3.70
2022-09-07T05:01:32.193Z,4.10
2022-09-07T05:04:01.137Z,3.47
2022-09-07T05:06:27.643Z,3.75
2022-09-07T05:08:55.015Z,4.15
2022-09-07T05:11:28.412Z,3.70
2022-09-07T05:14:00.876Z,3.63
2022-09-07T05:16:28.414Z,3.45
2022-09-07T05:19:01.223Z,4.00
2022-09-07T05:21:29.936Z,3.92
2022-09-07T05:23:57.737Z,3.72
2022-09-07T05:26:27.131Z,3.65
2022-09-07T05:31:40.739Z,3.70
2022-09-07T05:36:56.417Z,4.00
2022-09-07T05:39:23.175Z,4.25
2022-09-07T05:41:49.788Z,3.42
2022-09-07T05:47:02.776Z,4.50
2022-09-07T05:49:30.348Z,4.10
2022-09-07T05:51:56.827Z,4.00
2022-09-07T05:56:49.647Z,4.03
2022-09-07T06:01:42.498Z,4.25
2022-09-07T06:04:09.007Z,3.78
2022-09-07T06:09:04.739Z,4.03
2022-09-07T06:11:31.227Z,4.18
2022-09-07T06:13:57.697Z,4.20
2022-09-07T06:16:24.331Z,4.40
2022-09-07T06:18:50.995Z,4.70
2022-09-07T06:21:19.622Z,3.75
2022-09-07T06:23:47.727Z,3.88
2022-09-07T06:26:16.324Z,3.92
2022-09-07T06:28:51.378Z,3.70
2022-09-07T06:31:21.577Z,3.83
2022-09-07T06:33:48.852Z,3.83
2022-09-07T06:36:17.784Z,5.03
2022-09-07T06:38:45.260Z,3.97
2022-09-07T06:44:06.739Z,3.85
2022-09-07T06:49:19.852Z,3.80
2022-09-07T06:51:46.362Z,3.30
2022-09-07T06:56:59.309Z,3.23
2022-09-07T06:59:25.785Z,3.10
2022-09-07T07:01:52.257Z,3.20
2022-09-07T07:04:18.718Z,2.97
2022-09-07T07:06:45.178Z,2.70
2022-09-07T07:09:13.064Z,3.03
2022-09-07T07:11:39.632Z,2.80
2022-09-07T07:14:06.128Z,3.63
2022-09-07T07:16:32.850Z,2.72
2022-09-07T07:18:59.452Z,2.92
2022-09-07T07:21:27.175Z,3.00
2022-09-07T07:23:55.372Z,2.92
2022-09-07T07:26:26.689Z,2.70
2022-09-07T07:31:26.937Z,2.50
2022-09-07T07:33:53.858Z,2.60
2022-09-07T07:36:22.919Z,2.45
2022-09-07T07:44:17.408Z,1.98
2022-09-07T07:46:47.509Z,2.20
2022-09-07T07:49:13.983Z,2.10
2022-09-07T07:54:26.800Z,2.20
2022-09-07T07:56:53.206Z,1.92
2022-09-07T07:59:19.654Z,2.10
2022-09-07T08:01:46.181Z,2.30
2022-09-07T08:04:12.735Z,1.90
2022-09-07T08:06:42.527Z,2.58
2022-09-07T08:09:09.121Z,1.85
2022-09-07T08:11:35.542Z,2.03
2022-09-07T08:14:05.833Z,2.00
2022-09-07T08:16:32.995Z,1.88
2022-09-07T08:18:59.559Z,1.85
2022-09-07T08:21:25.979Z,2.55
2022-09-07T08:23:52.328Z,2.10
2022-09-07T08:26:18.714Z,1.80
2022-09-07T08:28:46.169Z,1.60
2022-09-07T08:31:15.754Z,2.10
2022-09-07T08:33:42.791Z,1.98
2022-09-07T08:36:19.794Z,1.80
2022-09-07T08:38:47.308Z,2.05
2022-09-07T08:41:41.436Z,1.85
2022-09-07T08:44:19.891Z,1.60
2022-09-07T08:47:00.456Z,1.80
2022-09-07T08:49:50.444Z,1.80
2022-09-07T08:52:25.100Z,1.95
2022-09-07T08:55:18.650Z,1.92
2022-09-07T08:57:52.184Z,1.90
2022-09-07T09:00:19.176Z,2.00
2022-09-07T09:02:46.397Z,1.90
2022-09-07T09:05:43.859Z,1.83
2022-09-07T09:08:36.726Z,2.35
2022-09-07T09:11:10.792Z,1.70
2022-09-07T09:14:05.113Z,1.80
2022-09-07T09:16:43.380Z,1.63
2022-09-07T09:19:37.472Z,1.92
2022-09-07T09:22:17.537Z,1.73
2022-09-07T09:24:49.764Z,2.10
2022-09-07T09:27:16.397Z,1.92
2022-09-07T09:29:43.090Z,1.65
2022-09-07T09:32:39.776Z,1.55
2022-09-07T09:35:25.312Z,1.90
2022-09-07T09:37:51.687Z,1.58
2022-09-07T09:40:23.219Z,1.75
2022-09-07T09:42:59.907Z,1.70
2022-09-07T09:46:12.294Z,1.63
2022-09-07T09:48:34.982Z,1.80
2022-09-07T09:53:55.935Z,1.90
2022-09-07T09:56:23.359Z,1.65
2022-09-07T09:59:05.759Z,1.70
2022-09-07T10:01:36.883Z,1.58
2022-09-07T10:04:25.343Z,1.63
2022-09-07T10:07:10.949Z,1.70
2022-09-07T10:09:40.364Z,1.60
2022-09-07T10:12:22.485Z,1.70
2022-09-07T10:14:48.901Z,1.75
2022-09-07T10:17:27.405Z,2.00
2022-09-07T10:19:59.135Z,1.70
2022-09-07T10:22:37.428Z,1.80
2022-09-07T10:25:25.120Z,1.80
2022-09-07T10:28:09.920Z,1.70
2022-09-07T10:30:45.225Z,1.60
2022-09-07T10:33:26.556Z,1.50
2022-09-07T10:36:37.165Z,1.70
2022-09-07T10:39:13.044Z,1.90
2022-09-07T10:42:08.640Z,2.15
2022-09-07T10:45:08.835Z,1.50
2022-09-07T10:48:00.123Z,1.60
2022-09-07T10:50:39.491Z,1.75
2022-09-07T10:53:42.275Z,1.70
2022-09-07T10:56:18.595Z,1.52
2022-09-07T10:59:02.193Z,1.52
2022-09-07T11:01:50.966Z,1.77
2022-09-07T11:04:36.240Z,1.60
2022-09-07T11:07:17.062Z,1.75
2022-09-07T11:09:48.347Z,1.40
2022-09-07T11:12:18.625Z,1.70
2022-09-07T11:15:10.767Z,1.80
2022-09-07T11:17:52.757Z,1.80
2022-09-07T11:20:34.010Z,1.85
2022-09-07T11:23:16.960Z,1.58
2022-09-07T11:26:01.919Z,1.70
2022-09-07T11:29:28.740Z,1.70
2022-09-07T11:31:49.319Z,1.30
2022-09-07T11:34:38.067Z,1.70
2022-09-07T11:37:19.532Z,1.50
2022-09-07T11:40:03.989Z,1.65
2022-09-07T11:42:55.708Z,1.60
2022-09-07T11:45:45.908Z,1.80
2022-09-07T11:48:30.285Z,1.67
2022-09-07T11:51:05.842Z,1.40
2022-09-07T11:53:42.425Z,1.50
2022-09-07T11:59:09.492Z,1.55
2022-09-07T12:01:44.910Z,2.88
2022-09-07T12:04:35.184Z,1.98
2022-09-07T12:07:10.977Z,2.05
2022-09-07T12:09:59.475Z,1.65
2022-09-07T12:12:38.059Z,1.48
2022-09-07T12:15:36.248Z,1.85
2022-09-07T12:18:05.435Z,1.40
2022-09-07T12:20:41.085Z,1.65
2022-09-07T12:23:16.731Z,1.50
2022-09-07T12:25:44.957Z,1.50
2022-09-07T12:28:21.720Z,1.65
2022-09-07T12:30:55.640Z,1.60
2022-09-07T12:33:26.552Z,1.85
2022-09-07T12:35:54.956Z,1.58
2022-09-07T12:38:30.735Z,1.67
2022-09-07T12:41:02.847Z,1.35
2022-09-07T12:43:36.103Z,1.60
2022-09-07T12:46:03.338Z,1.30
2022-09-07T12:49:00.106Z,1.70
2022-09-07T12:54:43.847Z,1.67
2022-09-07T12:57:34.762Z,1.40
2022-09-07T13:00:42.300Z,1.50
2022-09-07T13:06:16.081Z,1.42
2022-09-07T13:08:47.739Z,1.50
2022-09-07T13:11:30.011Z,1.40
2022-09-07T13:14:05.159Z,1.52
2022-09-07T13:19:59.196Z,1.50
2022-09-07T13:22:31.291Z,1.55
2022-09-07T13:24:59.793Z,1.30
2022-09-07T13:27:52.418Z,1.38
2022-09-07T13:30:31.013Z,1.50
2022-09-07T13:33:25.124Z,1.30
2022-09-07T13:35:54.178Z,1.20
2022-09-07T13:38:21.585Z,1.30
2022-09-07T13:40:52.034Z,1.00
2022-09-07T13:43:21.248Z,1.20
2022-09-07T13:45:53.887Z,1.60
2022-09-07T13:48:41.984Z,1.15
2022-09-07T13:51:20.487Z,1.50
2022-09-07T13:53:56.085Z,1.30
2022-09-07T13:56:28.349Z,1.35
2022-09-07T13:58:55.098Z,1.30
2022-09-07T14:01:26.500Z,1.60
2022-09-07T14:04:06.528Z,1.13
2022-09-07T14:06:34.165Z,1.25
2022-09-07T14:09:14.729Z,1.30
2022-09-07T14:11:46.054Z,1.23
2022-09-07T14:14:27.212Z,1.40
2022-09-07T14:17:07.554Z,1.40
2022-09-07T14:19:41.783Z,1.50
2022-09-07T14:22:11.192Z,1.40
2022-09-07T14:24:40.815Z,1.50
2022-09-07T14:27:20.945Z,1.10
2022-09-07T14:29:48.132Z,1.45
2022-09-07T14:32:22.331Z,1.25
2022-09-07T14:34:50.559Z,1.45
2022-09-07T14:37:20.943Z,1.55
2022-09-07T14:39:49.985Z,1.60
2022-09-07T14:42:22.150Z,1.35
2022-09-07T14:44:50.196Z,1.30
2022-09-07T14:47:23.491Z,1.45
2022-09-07T14:49:52.609Z,1.50
2022-09-07T14:53:33.154Z,1.42
2022-09-07T14:55:39.823Z,1.50
2022-09-07T14:58:15.568Z,1.60
2022-09-07T15:00:47.121Z,1.55
2022-09-07T15:03:50.954Z,1.70
2022-09-07T15:09:36.955Z,1.55
2022-09-07T15:12:18.458Z,1.80
2022-09-07T15:14:45.544Z,1.50
2022-09-07T15:20:29.643Z,1.75
2022-09-07T15:22:56.137Z,1.50
2022-09-07T15:25:22.911Z,1.50
2022-09-07T15:27:50.340Z,1.33
2022-09-07T15:30:17.615Z,1.75
2022-09-07T15:32:44.184Z,1.60
2022-09-07T15:35:10.914Z,1.42
2022-09-07T15:40:26.170Z,1.50
2022-09-07T15:43:00.640Z,1.38
2022-09-07T15:45:27.491Z,1.63
2022-09-07T15:47:54.152Z,1.60
2022-09-07T15:50:23.138Z,1.58
2022-09-07T15:52:49.744Z,1.58
2022-09-07T15:55:17.524Z,1.60
2022-09-07T15:58:05.245Z,1.42
2022-09-07T16:00:30.861Z,1.60
2022-09-07T16:03:06.097Z,1.95
2022-09-07T16:05:33.845Z,2.00
2022-09-07T16:10:55.604Z,1.90
2022-09-07T16:13:24.010Z,1.93
2022-09-07T16:15:52.709Z,2.13
2022-09-07T16:18:19.293Z,1.65
2022-09-07T16:20:47.362Z,2.03
2022-09-07T16:23:16.442Z,2.15
2022-09-07T16:25:56.283Z,2.67
2022-09-07T16:28:22.970Z,2.08
2022-09-07T16:30:50.188Z,2.28
2022-09-07T16:33:16.634Z,2.45
2022-09-07T16:35:43.089Z,1.90
2022-09-07T16:40:56.181Z,2.25
2022-09-07T16:43:22.878Z,2.05
2022-09-07T16:46:05.153Z,1.95
2022-09-07T16:48:33.462Z,2.60
2022-09-07T16:51:02.657Z,2.92
2022-09-07T16:53:31.065Z,2.00
2022-09-07T16:56:20.039Z,2.55
2022-09-07T16:58:49.246Z,2.35
2022-09-07T17:01:19.838Z,2.35
2022-09-07T17:03:49.224Z,2.30
2022-09-07T17:06:16.998Z,2.00
2022-09-07T17:08:43.959Z,2.70
2022-09-07T17:11:13.324Z,2.40
2022-09-07T17:13:41.308Z,2.38
2022-09-07T17:16:13.081Z,2.35
2022-09-07T17:21:35.905Z,2.65
2022-09-07T17:24:04.764Z,2.50
2022-09-07T17:26:32.181Z,2.85
2022-09-07T17:29:00.976Z,5.25
2022-09-07T17:34:16.900Z,3.05
2022-09-07T17:36:43.327Z,2.60
2022-09-07T17:39:18.627Z,2.50
2022-09-07T17:41:52.461Z,3.13
2022-09-07T17:44:19.316Z,2.53
2022-09-07T17:46:45.719Z,2.65
2022-09-07T17:49:14.375Z,2.85
2022-09-07T17:51:40.882Z,2.95
2022-09-07T17:54:11.649Z,2.55
2022-09-07T17:56:39.050Z,2.80
2022-09-07T18:01:53.870Z,2.70
2022-09-07T18:04:20.964Z,3.38
2022-09-07T18:06:47.654Z,2.97
2022-09-07T18:09:14.402Z,2.80
2022-09-07T18:11:47.095Z,3.25
2022-09-07T18:14:15.225Z,3.00
2022-09-07T18:16:44.100Z,3.17
2022-09-07T18:19:12.241Z,2.75
2022-09-07T18:21:40.810Z,3.10
2022-09-07T18:24:13.812Z,3.17
2022-09-07T18:26:41.020Z,3.03
2022-09-07T18:29:25.874Z,3.25
2022-09-07T18:31:55.356Z,3.45
2022-09-07T18:34:22.291Z,3.58
2022-09-07T18:36:49.048Z,3.33
2022-09-07T18:39:15.639Z,3.40
2022-09-07T18:41:42.356Z,3.35
2022-09-07T18:46:55.913Z,3.63
2022-09-07T18:49:22.498Z,3.35
2022-09-07T18:54:35.681Z,4.17
2022-09-07T18:57:02.211Z,3.80
2022-09-07T18:59:29.836Z,4.07
2022-09-07T19:02:01.321Z,4.13
2022-09-07T19:09:44.321Z,3.37
2022-09-07T19:12:10.866Z,3.47
2022-09-07T19:14:38.100Z,3.28
2022-09-07T19:17:04.852Z,3.30
2022-09-07T19:19:32.817Z,3.60
2022-09-07T19:22:01.552Z,3.75
2022-09-07T19:24:28.624Z,3.72
2022-09-07T19:27:00.075Z,4.10
2022-09-07T19:29:27.200Z,4.13
2022-09-07T19:32:11.635Z,3.97
2022-09-07T19:34:43.555Z,3.65
2022-09-07T19:37:12.623Z,3.72
2022-09-07T19:39:39.842Z,4.15
2022-09-07T19:42:07.237Z,3.35
2022-09-07T19:44:33.991Z,3.90
2022-09-07T19:47:00.842Z,3.50
2022-09-07T19:49:28.003Z,3.58
2022-09-07T19:51:54.833Z,3.42
2022-09-07T19:54:21.567Z,3.58
2022-09-07T19:56:48.345Z,4.10
2022-09-07T19:59:15.135Z,3.88
2022-09-07T20:01:45.984Z,3.78
2022-09-07T20:04:20.303Z,3.40
2022-09-07T20:06:49.829Z,3.03
2022-09-07T20:09:18.212Z,3.47
2022-09-07T20:11:46.935Z,3.85
2022-09-07T20:14:15.039Z,3.90
2022-09-07T20:16:41.976Z,3.53
2022-09-07T20:19:11.599Z,3.38
2022-09-07T20:21:38.340Z,3.70
2022-09-07T20:24:05.936Z,3.78
2022-09-07T20:26:32.692Z,3.50
2022-09-07T20:29:23.454Z,3.35
2022-09-07T20:31:46.235Z,3.28
2022-09-07T20:34:12.938Z,3.60
2022-09-07T20:36:40.071Z,3.33
2022-09-07T20:39:06.575Z,3.40
2022-09-07T20:41:34.226Z,3.60
2022-09-07T20:44:02.341Z,3.40
2022-09-07T20:46:30.283Z,3.55
2022-09-07T20:48:57.196Z,3.42
2022-09-07T20:51:23.742Z,4.03
2022-09-07T20:53:50.726Z,3.67
2022-09-07T20:56:18.450Z,3.50
2022-09-07T20:58:46.416Z,4.10
2022-09-07T21:01:15.275Z,3.78
2022-09-07T21:03:49.214Z,3.38
2022-09-07T21:06:17.356Z,3.25
2022-09-07T21:08:45.280Z,3.63
2022-09-07T21:11:19.874Z,3.67
2022-09-07T21:13:47.092Z,3.88
2022-09-07T21:16:16.895Z,4.18
2022-09-07T21:18:44.099Z,4.38
2022-09-07T21:21:20.163Z,4.60
2022-09-07T21:23:47.626Z,4.82
2022-09-07T21:26:14.004Z,4.40
2022-09-07T21:31:08.560Z,4.43
2022-09-07T21:33:36.413Z,4.30
2022-09-07T21:36:07.672Z,3.60
2022-09-07T21:38:36.075Z,3.80
2022-09-07T21:41:13.883Z,3.92
2022-09-07T21:43:40.921Z,3.80
2022-09-07T21:46:12.152Z,3.53
2022-09-07T21:48:39.304Z,3.90
2022-09-07T21:51:06.271Z,4.07
2022-09-07T21:53:33.369Z,4.30
2022-09-07T21:56:02.867Z,4.18
2022-09-07T21:58:29.692Z,4.20
2022-09-07T22:00:56.971Z,4.63
2022-09-07T22:03:25.242Z,4.30
2022-09-07T22:05:52.267Z,4.13
2022-09-07T22:08:19.225Z,4.35
2022-09-07T22:10:46.387Z,4.28
2022-09-07T22:13:12.992Z,4.72
2022-09-07T22:15:40.807Z,4.28
2022-09-07T22:18:10.748Z,3.80
2022-09-07T22:20:37.159Z,4.07
2022-09-07T22:25:33.117Z,3.92
2022-09-07T22:27:59.608Z,4.20
2022-09-07T22:32:52.314Z,3.28
2022-09-07T22:37:46.251Z,3.50
2022-09-07T22:40:14.680Z,3.63
2022-09-07T22:42:41.811Z,3.60
2022-09-07T22:45:08.958Z,3.80
2022-09-07T22:47:35.312Z,3.80
2022-09-07T22:50:01.685Z,3.70
2022-09-07T22:54:54.352Z,3.63
2022-09-07T22:59:47.009Z,3.40
2022-09-07T23:02:13.359Z,3.78
2022-09-07T23:07:07.590Z,3.30
2022-09-07T23:09:33.960Z,3.30
2022-09-07T23:12:00.430Z,3.25
2022-09-07T23:16:53.235Z,3.65
2022-09-07T23:19:20.316Z,3.47
2022-09-07T23:21:46.937Z,2.95
2022-09-07T23:24:15.984Z,2.35
2022-09-07T23:26:43.160Z,2.75
2022-09-07T23:29:11.950Z,2.95
2022-09-07T23:31:38.725Z,2.60
2022-09-07T23:34:05.540Z,2.92
2022-09-07T23:36:32.708Z,4.05
2022-09-07T23:38:59.912Z,4.30
2022-09-07T23:41:27.158Z,4.32
2022-09-07T23:43:54.793Z,4.00
2022-09-07T23:46:21.882Z,4.78
2022-09-07T23:48:49.076Z,4.78
2022-09-07T23:51:19.936Z,5.15
2022-09-07T23:53:49.552Z,5.35
2022-09-07T23:58:42.676Z,5.45
